^^
Meteo Knjazevac Station Historical Data
Daily Summary for May 24, 2022 Units:  English    Metric   Both
Daily Weekly Monthly Yearly Custom
  High: Low: Average:
Temperature: 43.2 °F 41.4 °F 42.3 °F
Dew Point: 42.9 °F 41.1 °F 42 °F
Humidity: 99% 99% 99%
Wind Speed: 9.1mph 0mph 4.6mph
Wind Gust: 12mph - -
Wind- - South
Pressure: 29.81 in 29.74 in -
Precipitation: 0.00 in    
Historical Graphs
 
 
Tabular Data for May 24, 2022
Time Temperature Dew Point Pressure Wind Wind Speed Wind Gust Humidity Rainfall Rate (Hourly) solar Conditions
00:04 42.2 °F 41.9 °F 29.74 in SSE 1.2 mph 1 mph 99% 0.00 in 0 W/m2
00:09 42.2 °F 41.9 °F 29.74 in SSW 1.1 mph 2 mph 99% 0.00 in 0 W/m2
00:14 42.1 °F 41.8 °F 29.74 in ENE 2 mph 1.3 mph 99% 0.00 in 0 W/m2
00:19 42.1 °F 41.8 °F 29.74 in East 0.9 mph 2 mph 99% 0.00 in 0 W/m2
00:24 42.1 °F 41.8 °F 29.74 in NNE 1.1 mph 2 mph 99% 0.00 in 0 W/m2
00:29 42.1 °F 41.8 °F 29.74 in NNW 1.2 mph 2 mph 99% 0.00 in 0 W/m2
00:34 42.1 °F 41.8 °F 29.74 in WSW 1 mph 2 mph 99% 0.00 in 0 W/m2
00:39 42.1 °F 41.8 °F 29.74 in WSW 0.4 mph 1 mph 99% 0.00 in 0 W/m2
00:44 42.1 °F 41.8 °F 29.74 in WSW 0.6 mph 1 mph 99% 0.00 in 0 W/m2
00:49 42.3 °F 42 °F 29.74 in WNW 1.6 mph 1.3 mph 99% 0.00 in 0 W/m2
00:54 42.3 °F 42 °F 29.74 in NNW 1.1 mph 2 mph 99% 0.00 in 0 W/m2
00:59 42.3 °F 42 °F 29.75 in NNW 1.1 mph 2 mph 99% 0.00 in 0 W/m2
01:04 42.3 °F 42 °F 29.74 in Calm   2 mph 99% 0.00 in 0 W/m2
01:09 42.3 °F 42.1 °F 29.74 in North 1.2 mph 1.8 mph 99% 0.00 in 0 W/m2
01:14 42.4 °F 42.2 °F 29.75 in North 3.1 mph 2.5 mph 99% 0.00 in 0 W/m2
01:19 42.4 °F 42.2 °F 29.75 in NNE 3.2 mph 3 mph 99% 0.00 in 0 W/m2
01:24 42.5 °F 42.3 °F 29.75 in NNE 2.9 mph 3 mph 99% 0.00 in 0 W/m2
01:29 42.6 °F 42.4 °F 29.75 in NNE 3 mph 3 mph 99% 0.00 in 0 W/m2
01:34 42.6 °F 42.4 °F 29.75 in NNE 2.1 mph 3 mph 99% 0.00 in 0 W/m2
01:39 42.6 °F 42.4 °F 29.75 in North 0.6 mph 3 mph 99% 0.00 in 0 W/m2
01:44 42.6 °F 42.4 °F 29.75 in NNE 1.8 mph 2 mph 99% 0.00 in 0 W/m2
01:49 42.6 °F 42.4 °F 29.75 in NNE 0.6 mph 3 mph 99% 0.00 in 0 W/m2
01:54 42.8 °F 42.5 °F 29.75 in NNE 3.1 mph 2.9 mph 99% 0.00 in 0 W/m2
01:59 42.8 °F 42.5 °F 29.75 in NNE 3 mph 3 mph 99% 0.00 in 0 W/m2
02:04 42.8 °F 42.5 °F 29.76 in NNE 2 mph 4 mph 99% 0.00 in 0 W/m2
02:09 42.8 °F 42.5 °F 29.76 in NNE 1 mph 4 mph 99% 0.00 in 0 W/m2
02:14 42.8 °F 42.5 °F 29.76 in North 2.2 mph 2 mph 99% 0.00 in 0 W/m2
02:19 42.8 °F 42.5 °F 29.76 in NW 4.7 mph 5.1 mph 99% 0.00 in 0 W/m2
02:24 42.9 °F 42.6 °F 29.76 in WSW 8.3 mph 7 mph 99% 0.00 in 0 W/m2
02:29 43.1 °F 42.8 °F 29.77 in SW 7.2 mph 9 mph 99% 0.00 in 0 W/m2
02:34 43.2 °F 42.9 °F 29.77 in SW 6.2 mph 7 mph 99% 0.00 in 0 W/m2
02:39 43.2 °F 42.9 °F 29.77 in SW 6.8 mph 7 mph 99% 0.00 in 0 W/m2
02:44 43.2 °F 42.9 °F 29.77 in SW 6.7 mph 8 mph 99% 0.00 in 0 W/m2
02:49 43.2 °F 42.9 °F 29.77 in SW 6.6 mph 8 mph 99% 0.00 in 0 W/m2
02:54 43 °F 42.7 °F 29.77 in SW 8.3 mph 9 mph 99% 0.00 in 0 W/m2
02:59 43 °F 42.7 °F 29.77 in SW 7.7 mph 10 mph 99% 0.00 in 0 W/m2
03:04 42.9 °F 42.6 °F 29.78 in SW 8.6 mph 10 mph 99% 0.00 in 0 W/m2
03:09 42.8 °F 42.5 °F 29.78 in SW 7 mph 9 mph 99% 0.00 in 0 W/m2
03:14 42.7 °F 42.4 °F 29.78 in SW 5.5 mph 7 mph 99% 0.00 in 0 W/m2
03:19 42.6 °F 42.4 °F 29.78 in WSW 7.2 mph 6 mph 99% 0.00 in 0 W/m2
03:24 42.5 °F 42.3 °F 29.78 in SW 7.6 mph 8 mph 99% 0.00 in 0 W/m2
03:29 42.4 °F 42.2 °F 29.78 in SW 5.2 mph 8 mph 99% 0.00 in 0 W/m2
03:34 42.4 °F 42.2 °F 29.78 in WSW 5.9 mph 6 mph 99% 0.00 in 0 W/m2
03:39 42.4 °F 42.2 °F 29.78 in SW 6.1 mph 7 mph 99% 0.00 in 0 W/m2
03:44 42.3 °F 42 °F 29.78 in SW 6 mph 7 mph 99% 0.00 in 0 W/m2
03:49 42.3 °F 42 °F 29.79 in WSW 7.8 mph 6 mph 99% 0.00 in 0 W/m2
03:54 42.1 °F 41.8 °F 29.79 in WSW 6.9 mph 9 mph 99% 0.00 in 0 W/m2
03:59 42.1 °F 41.8 °F 29.79 in SW 7.8 mph 8 mph 99% 0.00 in 0 W/m2
04:04 41.9 °F 41.6 °F 29.79 in SW 7.8 mph 9 mph 99% 0.00 in 0 W/m2
04:09 41.9 °F 41.6 °F 29.79 in SW 9.1 mph 12 mph 99% 0.00 in 0 W/m2
04:14 41.8 °F 41.6 °F 29.79 in SW 8.7 mph 10 mph 99% 0.00 in 0 W/m2
04:19 41.7 °F 41.5 °F 29.79 in SW 7.5 mph 9 mph 99% 0.00 in 0 W/m2
04:24 41.6 °F 41.3 °F 29.79 in SW 8.2 mph 9 mph 99% 0.00 in 0 W/m2
04:29 41.5 °F 41.3 °F 29.80 in SW 7.9 mph 9 mph 99% 0.00 in 0 W/m2
04:34 41.5 °F 41.3 °F 29.80 in SW 6.4 mph 9 mph 99% 0.00 in 0 W/m2
04:39 41.5 °F 41.3 °F 29.80 in SW 7.5 mph 7 mph 99% 0.00 in 0 W/m2
04:44 41.4 °F 41.2 °F 29.80 in SW 8 mph 8 mph 99% 0.00 in 0 W/m2
04:49 41.4 °F 41.1 °F 29.80 in SW 7.2 mph 9 mph 99% 0.00 in 0 W/m2
04:54 41.5 °F 41.2 °F 29.80 in SW 5.9 mph 8 mph 99% 0.00 in 0 W/m2
04:59 41.4 °F 41.1 °F 29.81 in SW 5.7 mph 7 mph 99% 0.00 in 0 W/m2
05:04 41.4 °F 41.2 °F 29.81 in SW 5.4 mph 6 mph 99% 0.00 in 0 W/m2
05:09 41.4 °F 41.1 °F 29.81 in SW 5.6 mph 7 mph 99% 0.00 in 0 W/m2
05:14 41.5 °F 41.2 °F 29.81 in SW 4.4 mph 6 mph 99% 0.00 in 0 W/m2
05:19 41.5 °F 41.3 °F 29.81 in SW 3.8 mph 5 mph 99% 0.00 in 0 W/m2
05:24 41.5 °F 41.3 °F 29.81 in SW 3.8 mph 5 mph 99% 0.00 in 0 W/m2
05:29 41.5 °F 41.3 °F 29.81 in SW 4.8 mph 5 mph 99% 0.00 in 0 W/m2
Knjazevac, Serbia
Compliments of Weather Underground - 2 mb